Time;durP1;ratioP1;P1;durP2;ratioP2;P2;SDS_P1;SDS_P2;PMS_P1;PMS_P2;Temp;Humidity;BMP_temperature;BMP_pressure;BME280_temperature;BME280_humidity;BME280_pressure;Samples;Min_cycle;Max_cycle;Signal;HPM_P1;HPM_P2
2022/04/23 00:03:15;;;;;;;10.73;7.10;;;2.20;99.90;;;;;;8213569;28;20185;-69
2022/04/23 00:07:15;;;;;;;9.93;6.77;;;2.10;99.90;;;;;;8228432;28;20212;-69
2022/04/23 00:11:16;;;;;;;7.80;6.97;;;2.00;99.90;;;;;;8231454;28;20180;-69
2022/04/23 00:15:17;;;;;;;11.37;7.40;;;1.90;99.90;;;;;;8232112;28;20189;-69
2022/04/23 00:19:18;;;;;;;9.87;6.70;;;1.90;99.90;;;;;;8235227;28;20192;-69
2022/04/23 00:23:19;;;;;;;8.43;6.70;;;1.70;99.90;;;;;;8231349;28;20193;-69
2022/04/23 00:27:19;;;;;;;11.97;7.30;;;1.70;99.90;;;;;;8221587;28;20212;-69
2022/04/23 00:31:20;;;;;;;10.33;7.17;;;1.60;99.90;;;;;;8234597;28;20403;-69
2022/04/23 00:35:21;;;;;;;9.43;7.43;;;1.50;99.90;;;;;;8234941;28;20184;-69
2022/04/23 00:39:22;;;;;;;10.97;7.80;;;1.40;99.90;;;;;;8233840;28;20294;-70
2022/04/23 00:43:27;;;;;;;8.93;6.90;;;1.40;99.90;;;;;;8242407;28;20196;-69
2022/04/23 00:47:28;;;;;;;9.50;5.87;;;1.20;99.90;;;;;;8230049;28;20519;-69
2022/04/23 00:51:31;;;;;;;8.83;6.37;;;1.20;99.90;;;;;;8234168;28;20275;-69
2022/04/23 00:55:33;;;;;;;11.10;6.97;;;1.10;99.90;;;;;;8232363;28;20184;-70
2022/04/23 00:59:34;;;;;;;11.13;7.80;;;1.00;99.90;;;;;;8232818;28;20219;-69
2022/04/23 01:03:36;;;;;;;8.47;6.57;;;1.00;99.90;;;;;;8236673;28;20200;-70
2022/04/23 01:07:40;;;;;;;9.00;6.77;;;0.90;99.90;;;;;;8218491;28;20233;-70
2022/04/23 01:11:42;;;;;;;11.07;7.37;;;0.80;99.90;;;;;;8233728;28;20279;-69
2022/04/23 01:15:58;;;;;;;10.03;7.00;;;0.80;99.90;;;;;;8216500;28;20191;-70
2022/04/23 01:20:06;;;;;;;10.10;6.40;;;0.70;99.90;;;;;;8219845;28;20280;-69
2022/04/23 01:24:07;;;;;;;9.47;6.00;;;0.60;99.90;;;;;;8217585;28;20184;-69
2022/04/23 01:28:09;;;;;;;9.67;7.00;;;0.50;99.90;;;;;;8217686;28;20621;-69
2022/04/23 01:32:10;;;;;;;9.90;6.97;;;0.50;99.90;;;;;;8230714;28;20342;-69
2022/04/23 01:36:14;;;;;;;8.00;6.27;;;0.40;99.90;;;;;;8218265;28;20835;-69
2022/04/23 01:40:16;;;;;;;10.17;7.60;;;0.40;99.90;;;;;;8222682;28;20232;-69
2022/04/23 01:44:17;;;;;;;8.37;6.20;;;0.30;99.90;;;;;;8217197;28;20192;-69
2022/04/23 01:48:18;;;;;;;8.50;6.73;;;0.20;99.90;;;;;;8230964;28;20235;-69
2022/04/23 01:52:19;;;;;;;12.80;6.30;;;0.10;99.90;;;;;;8231135;28;20255;-69
2022/04/23 01:56:20;;;;;;;10.07;7.47;;;0.00;99.90;;;;;;8232004;28;20187;-68
2022/04/23 02:00:21;;;;;;;11.03;6.43;;;-0.10;99.90;;;;;;8217232;28;20509;-69
2022/04/23 02:04:22;;;;;;;10.13;6.20;;;-0.10;99.90;;;;;;8216987;28;20189;-69
2022/04/23 02:08:23;;;;;;;11.20;6.80;;;-0.20;99.90;;;;;;8215267;28;20268;-68
2022/04/23 02:12:24;;;;;;;8.60;6.40;;;-0.20;99.90;;;;;;8218564;28;20180;-68
2022/04/23 02:16:26;;;;;;;10.10;7.30;;;-0.30;99.90;;;;;;8220419;28;20201;-69
2022/04/23 02:20:28;;;;;;;11.77;8.53;;;-0.30;99.90;;;;;;8234005;28;20192;-69
2022/04/23 02:24:30;;;;;;;11.07;7.67;;;-0.30;99.90;;;;;;8235627;28;20196;-69
2022/04/23 02:28:32;;;;;;;8.90;6.37;;;-0.40;99.90;;;;;;8218075;28;20224;-68
2022/04/23 02:32:32;;;;;;;9.73;7.47;;;-0.40;99.90;;;;;;8236399;28;20210;-67
2022/04/23 02:36:35;;;;;;;10.47;6.93;;;-0.50;99.90;;;;;;8238542;28;20226;-68
2022/04/23 02:40:36;;;;;;;13.27;8.40;;;-0.60;99.90;;;;;;8237548;28;20218;-68
2022/04/23 02:44:37;;;;;;;13.27;8.67;;;-0.60;99.90;;;;;;8238060;28;20182;-68
2022/04/23 02:48:37;;;;;;;15.10;9.43;;;-0.60;99.90;;;;;;8236110;28;20208;-68
2022/04/23 02:52:44;;;;;;;11.03;8.30;;;-0.70;99.90;;;;;;8233417;28;20196;-68
2022/04/23 02:56:45;;;;;;;11.97;8.93;;;-0.70;99.90;;;;;;8233565;28;20191;-68
2022/04/23 03:00:46;;;;;;;13.33;8.70;;;-0.80;99.90;;;;;;8232466;28;20222;-76
2022/04/23 03:04:47;;;;;;;12.23;8.47;;;-0.80;99.90;;;;;;8230763;28;20203;-68
2022/04/23 03:08:48;;;;;;;12.90;9.13;;;-0.80;99.90;;;;;;8228536;28;20257;-68
2022/04/23 03:12:49;;;;;;;13.77;9.53;;;-0.90;99.90;;;;;;8230784;28;20205;-68
2022/04/23 03:16:50;;;;;;;13.93;9.97;;;-0.90;99.90;;;;;;8215827;28;20199;-68
2022/04/23 03:20:50;;;;;;;16.00;9.73;;;-0.90;99.90;;;;;;8232358;28;20209;-68
2022/04/23 03:24:51;;;;;;;14.93;10.67;;;-0.90;99.90;;;;;;8230387;28;20195;-68
2022/04/23 03:28:52;;;;;;;14.87;10.13;;;-1.00;99.90;;;;;;8215635;28;20258;-68
2022/04/23 03:32:53;;;;;;;15.00;10.27;;;-1.00;99.90;;;;;;8231645;28;20186;-68
2022/04/23 03:36:54;;;;;;;16.70;10.60;;;-1.10;99.90;;;;;;8215350;28;20195;-68
2022/04/23 03:40:55;;;;;;;15.90;10.30;;;-1.10;99.90;;;;;;8232209;28;20225;-68
2022/04/23 03:44:56;;;;;;;16.60;10.77;;;-1.10;99.90;;;;;;8226744;28;20378;-68
2022/04/23 03:48:57;;;;;;;14.17;10.33;;;-1.10;99.90;;;;;;8215528;28;20209;-68
2022/04/23 03:52:57;;;;;;;15.73;10.47;;;-1.10;99.90;;;;;;8230055;28;20249;-68
2022/04/23 03:56:58;;;;;;;15.67;10.00;;;-1.10;99.90;;;;;;8234868;28;20217;-68
2022/04/23 04:00:59;;;;;;;16.43;11.07;;;-1.10;99.90;;;;;;8220636;28;20272;-67
2022/04/23 04:05:00;;;;;;;17.73;10.97;;;-1.10;99.90;;;;;;8234075;28;20262;-68
2022/04/23 04:09:01;;;;;;;16.90;11.17;;;-1.10;99.90;;;;;;8236508;28;20217;-68
2022/04/23 04:13:02;;;;;;;23.70;13.43;;;-0.80;99.90;;;;;;8235575;28;20248;-68
2022/04/23 04:17:11;;;;;;;18.53;12.70;;;-0.30;99.90;;;;;;8236426;28;20194;-68
2022/04/23 04:21:13;;;;;;;22.53;14.53;;;0.30;99.90;;;;;;8217476;28;20192;-68
2022/04/23 04:25:14;;;;;;;22.07;14.03;;;1.00;99.90;;;;;;8221190;28;20570;-69
2022/04/23 04:29:15;;;;;;;20.17;13.83;;;1.60;99.90;;;;;;8235901;28;20208;-69
2022/04/23 04:33:16;;;;;;;20.20;13.87;;;2.00;99.90;;;;;;8216573;28;20240;-68
2022/04/23 04:37:17;;;;;;;19.70;14.67;;;2.40;99.90;;;;;;8233761;28;20198;-68
2022/04/23 04:41:17;;;;;;;18.37;13.07;;;2.80;99.90;;;;;;8221048;28;20201;-69
2022/04/23 04:45:18;;;;;;;18.43;13.30;;;3.10;99.90;;;;;;8222051;28;20259;-69
2022/04/23 04:49:19;;;;;;;16.83;13.53;;;3.30;99.90;;;;;;8211011;28;20212;-69
2022/04/23 04:53:20;;;;;;;17.37;12.87;;;3.40;99.90;;;;;;8235709;28;20359;-69
2022/04/23 04:57:21;;;;;;;18.97;13.83;;;3.40;99.90;;;;;;8221215;28;20196;-70
2022/04/23 05:01:21;;;;;;;19.17;13.13;;;3.20;99.90;;;;;;8210912;28;20306;-69
2022/04/23 05:05:22;;;;;;;17.20;12.33;;;3.10;99.90;;;;;;8214798;28;20201;-69
2022/04/23 05:09:23;;;;;;;16.93;13.03;;;3.00;99.90;;;;;;8229859;28;20292;-70
2022/04/23 05:13:24;;;;;;;17.60;12.53;;;2.90;99.90;;;;;;8210430;28;20190;-70
2022/04/23 05:17:25;;;;;;;19.23;13.23;;;2.90;99.90;;;;;;8231268;28;20201;-70
2022/04/23 05:21:26;;;;;;;19.27;13.90;;;3.00;99.90;;;;;;8216805;28;20196;-70
2022/04/23 05:25:26;;;;;;;21.53;16.27;;;3.20;99.90;;;;;;8216091;28;20298;-70
2022/04/23 05:29:27;;;;;;;36.37;25.40;;;3.30;99.90;;;;;;8226952;28;20299;-70
2022/04/23 05:33:28;;;;;;;36.20;25.53;;;3.30;99.90;;;;;;8208697;28;20191;-69
2022/04/23 05:37:29;;;;;;;35.87;26.20;;;3.50;99.90;;;;;;8210431;28;20202;-69
2022/04/23 05:41:29;;;;;;;40.33;29.03;;;3.80;99.90;;;;;;8234254;28;20215;-69
2022/04/23 05:45:31;;;;;;;36.40;25.80;;;4.00;99.90;;;;;;8232338;28;20335;-70
2022/04/23 05:49:32;;;;;;;29.00;21.37;;;4.20;99.90;;;;;;8201331;28;20319;-68
2022/04/23 05:53:32;;;;;;;34.47;21.27;;;4.30;99.90;;;;;;8231624;28;20192;-70
2022/04/23 05:57:34;;;;;;;34.63;24.30;;;4.60;99.90;;;;;;8219038;28;20278;-70
2022/04/23 06:01:35;;;;;;;48.10;35.03;;;4.90;99.90;;;;;;8225477;28;20199;-69
2022/04/23 06:05:36;;;;;;;26.20;18.83;;;5.20;99.90;;;;;;8232587;28;20192;-70
2022/04/23 06:09:36;;;;;;;21.20;16.80;;;5.40;99.90;;;;;;8231243;28;20311;-70
2022/04/23 06:13:37;;;;;;;24.43;16.63;;;5.60;99.90;;;;;;8232824;28;20452;-69
2022/04/23 06:17:38;;;;;;;20.93;16.53;;;5.80;99.90;;;;;;8231910;28;20193;-69
2022/04/23 06:21:39;;;;;;;24.73;16.97;;;5.90;99.90;;;;;;8225039;28;20197;-68
2022/04/23 06:25:40;;;;;;;25.43;17.47;;;6.10;99.90;;;;;;8230599;28;20196;-70
2022/04/23 06:29:41;;;;;;;21.40;15.50;;;6.40;99.90;;;;;;8228139;28;20212;-67
2022/04/23 06:33:42;;;;;;;23.23;16.23;;;6.70;99.90;;;;;;8230498;28;20203;-69
2022/04/23 06:37:44;;;;;;;19.20;14.50;;;6.90;99.90;;;;;;8212626;28;20196;-67
2022/04/23 06:41:45;;;;;;;18.60;14.57;;;7.20;40.50;;;;;;8213355;28;20207;-68
2022/04/23 06:45:45;;;;;;;18.87;13.77;;;7.40;1.00;;;;;;8226774;28;20188;-68
2022/04/23 06:49:46;;;;;;;19.43;13.47;;;7.70;99.90;;;;;;8230138;28;20204;-69
2022/04/23 06:53:47;;;;;;;20.33;14.37;;;7.80;99.90;;;;;;8215324;28;20196;-68
2022/04/23 06:57:49;;;;;;;17.93;13.73;;;8.10;1.00;;;;;;8228488;28;20228;-69
2022/04/23 07:01:50;;;;;;;17.27;13.43;;;8.20;1.00;;;;;;8210488;28;20246;-69
2022/04/23 07:05:51;;;;;;;14.90;11.40;;;8.30;99.90;;;;;;8227826;28;20189;-68
2022/04/23 07:09:52;;;;;;;14.07;11.10;;;8.40;28.80;;;;;;8213337;28;20217;-70
2022/04/23 07:13:53;;;;;;;11.73;9.13;;;8.50;1.00;;;;;;8227103;28;20193;-68
2022/04/23 07:17:54;;;;;;;16.10;11.63;;;8.70;1.00;;;;;;8225374;28;20193;-68
2022/04/23 07:21:55;;;;;;;12.40;9.73;;;9.10;1.00;;;;;;8212503;28;20251;-70
2022/04/23 07:25:55;;;;;;;11.67;8.90;;;9.40;1.00;;;;;;8210391;28;20189;-70
2022/04/23 07:29:56;;;;;;;11.97;9.33;;;9.60;1.00;;;;;;8232548;28;20222;-68
2022/04/23 07:38:20;;;;;;;10.83;8.07;;;10.00;1.00;;;;;;8211019;28;20313;-67
2022/04/23 07:42:21;;;;;;;9.20;7.80;;;10.30;22.00;;;;;;8211128;28;20180;-69
2022/04/23 07:46:22;;;;;;;10.27;6.50;;;10.40;1.00;;;;;;8212447;28;20521;-68
2022/04/23 07:50:23;;;;;;;9.27;7.67;;;10.60;1.00;;;;;;8228141;28;20186;-67
2022/04/23 07:54:24;;;;;;;7.73;6.90;;;10.90;1.00;;;;;;8214001;28;20185;-69
2022/04/23 07:58:24;;;;;;;9.33;6.77;;;11.10;99.90;;;;;;8228054;28;20196;-66
2022/04/23 08:02:25;;;;;;;8.33;6.97;;;11.30;99.90;;;;;;8208694;28;20195;-67
2022/04/23 08:06:26;;;;;;;10.23;7.47;;;11.50;85.20;;;;;;8233152;28;20192;-67
2022/04/23 08:10:27;;;;;;;7.77;6.97;;;11.40;99.90;;;;;;8231882;28;20190;-68
2022/04/23 08:14:28;;;;;;;8.40;7.00;;;11.50;99.90;;;;;;8212345;28;20188;-68
2022/04/23 08:18:29;;;;;;;7.70;6.33;;;11.70;25.30;;;;;;8231198;28;20267;-68
2022/04/23 08:22:30;;;;;;;7.57;6.43;;;11.80;80.60;;;;;;8226413;28;20333;-67
2022/04/23 08:26:31;;;;;;;8.03;6.37;;;12.00;58.80;;;;;;8214776;28;20212;-66
2022/04/23 08:30:34;;;;;;;8.10;6.40;;;12.20;67.60;;;;;;8214016;28;20211;-68
2022/04/23 08:34:35;;;;;;;9.50;7.20;;;12.40;1.00;;;;;;8227860;28;20589;-69
2022/04/23 08:38:36;;;;;;;7.37;6.57;;;12.50;1.00;;;;;;8230475;28;20234;-69
2022/04/23 08:42:38;;;;;;;7.67;6.40;;;12.50;1.00;;;;;;8219719;28;20192;-67
2022/04/23 08:46:40;;;;;;;9.10;6.57;;;12.70;1.00;;;;;;8221923;28;20220;-65
2022/04/23 08:50:43;;;;;;;7.57;5.43;;;12.70;1.00;;;;;;8234767;28;20569;-68
2022/04/23 08:54:44;;;;;;;7.23;6.37;;;12.80;1.00;;;;;;8219185;28;20185;-69
2022/04/23 08:58:46;;;;;;;8.07;5.87;;;13.00;1.00;;;;;;8232331;28;20251;-68
2022/04/23 09:02:47;;;;;;;5.83;5.10;;;13.30;1.00;;;;;;8220939;28;20204;-66
2022/04/23 09:06:49;;;;;;;6.53;5.23;;;13.60;1.00;;;;;;8218809;28;20571;-69
2022/04/23 09:10:54;;;;;;;5.93;5.33;;;13.80;1.00;;;;;;8218299;28;20247;-67
2022/04/23 09:24:09;;;;;;;7.20;5.63;;;13.40;99.90;;;;;;8210335;28;20235;-66
2022/04/23 09:28:23;;;;;;;7.93;5.77;;;13.30;99.90;;;;;;8232849;28;20216;-68
2022/04/23 09:32:27;;;;;;;6.10;5.50;;;13.20;99.90;;;;;;8220310;28;20191;-68
2022/04/23 09:36:49;;;;;;;6.60;5.07;;;13.10;1.00;;;;;;8217744;28;20176;-68
2022/04/23 09:40:58;;;;;;;5.40;4.90;;;13.40;1.00;;;;;;8232437;28;20231;-68
2022/04/23 09:45:17;;;;;;;6.00;4.70;;;13.90;99.90;;;;;;8217834;28;20243;-63
2022/04/23 09:49:21;;;;;;;5.87;5.37;;;14.30;99.90;;;;;;8238662;28;20303;-64
2022/04/23 09:53:22;;;;;;;5.57;5.03;;;14.70;99.90;;;;;;8235151;28;20192;-65
2022/04/23 09:57:25;;;;;;;5.70;5.20;;;14.90;99.90;;;;;;8216436;28;20196;-65
2022/04/23 10:01:26;;;;;;;5.73;4.30;;;15.10;99.90;;;;;;8217149;28;20192;-62
2022/04/23 10:05:28;;;;;;;5.60;5.07;;;15.00;99.90;;;;;;8231818;28;20188;-62
2022/04/23 10:09:38;;;;;;;6.13;4.73;;;14.80;99.90;;;;;;8231561;28;20219;-64
2022/04/23 10:13:41;;;;;;;5.67;5.17;;;14.70;99.90;;;;;;8214378;28;20193;-63
2022/04/23 10:17:43;;;;;;;5.70;5.10;;;14.60;99.90;;;;;;8230845;28;20196;-63
2022/04/23 10:22:11;;;;;;;5.53;5.03;;;14.60;99.90;;;;;;8232316;28;20331;-66
2022/04/23 10:26:24;;;;;;;5.20;4.70;;;14.60;99.90;;;;;;8231923;28;20203;-61
2022/04/23 10:30:31;;;;;;;5.60;5.10;;;14.70;99.90;;;;;;8217024;28;20631;-63
2022/04/23 10:34:33;;;;;;;5.43;4.60;;;14.80;99.90;;;;;;8235524;28;20200;-66
2022/04/23 10:38:34;;;;;;;6.73;4.63;;;15.00;99.90;;;;;;8214201;28;20212;-62
2022/04/23 10:42:35;;;;;;;4.50;4.10;;;14.80;99.90;;;;;;8216235;28;20188;-61
2022/04/23 10:46:42;;;;;;;5.53;4.50;;;14.80;99.90;;;;;;8231890;28;20188;-62
2022/04/23 10:50:59;;;;;;;4.00;3.60;;;14.90;99.90;;;;;;8216102;28;20192;-63
2022/04/23 10:55:00;;;;;;;4.70;4.30;;;15.10;99.90;;;;;;8229086;28;20192;-65
2022/04/23 10:59:01;;;;;;;5.00;4.43;;;15.20;99.90;;;;;;8216581;28;20199;-62
2022/04/23 11:03:10;;;;;;;5.50;4.00;;;15.20;99.90;;;;;;8230893;28;20201;-63
2022/04/23 11:16:19;;;;;;;4.87;4.37;;;15.80;99.90;;;;;;8215425;28;20203;-61
2022/04/23 11:20:31;;;;;;;5.23;3.67;;;15.90;99.90;;;;;;8217033;28;20210;-62
2022/04/23 11:24:33;;;;;;;3.53;3.23;;;16.50;99.90;;;;;;8231402;28;20308;-63
2022/04/23 11:28:34;;;;;;;4.43;4.03;;;17.00;99.90;;;;;;8216167;28;20220;-62
2022/04/23 11:32:36;;;;;;;4.93;4.43;;;17.70;99.90;;;;;;8216455;28;20212;-65
2022/04/23 11:36:37;;;;;;;4.53;4.13;;;17.80;82.90;;;;;;8223138;28;20185;-65
2022/04/23 11:40:38;;;;;;;5.60;4.13;;;17.40;72.50;;;;;;8230467;28;20207;-62
2022/04/23 11:44:48;;;;;;;4.70;4.07;;;16.90;98.70;;;;;;8211910;28;20196;-64
2022/04/23 11:48:50;;;;;;;4.97;4.20;;;16.60;99.90;;;;;;8230442;28;20279;-64
2022/04/23 11:53:00;;;;;;;5.63;4.10;;;16.40;99.90;;;;;;8215013;28;20287;-63
2022/04/23 11:57:01;;;;;;;5.30;4.47;;;16.90;99.90;;;;;;8214168;28;20208;-68
2022/04/23 12:01:02;;;;;;;4.70;4.20;;;17.60;95.90;;;;;;8230225;28;20223;-64
2022/04/23 12:05:05;;;;;;;4.23;3.80;;;17.90;99.90;;;;;;8214954;28;20199;-64
2022/04/23 12:09:09;;;;;;;4.50;3.83;;;17.70;25.90;;;;;;8228837;28;20231;-61
2022/04/23 12:13:12;;;;;;;8.90;6.23;;;17.30;39.60;;;;;;8231366;28;20228;-65
2022/04/23 12:17:26;;;;;;;4.73;4.23;;;17.30;63.50;;;;;;8236268;28;20266;-62
2022/04/23 12:21:27;;;;;;;4.30;3.90;;;17.30;65.00;;;;;;8228998;28;20207;-62
2022/04/23 12:25:29;;;;;;;5.33;4.33;;;17.10;51.10;;;;;;8221296;28;20208;-67
2022/04/23 12:42:47;;;;;;;5.40;4.90;;;17.90;32.30;;;;;;8222217;28;20200;-67
2022/04/23 12:47:00;;;;;;;5.90;5.13;;;17.80;44.50;;;;;;8234666;28;20192;-67
2022/04/23 12:51:07;;;;;;;5.87;4.53;;;17.50;53.20;;;;;;8235589;28;20599;-68
2022/04/23 12:55:30;;;;;;;4.47;4.07;;;17.10;80.90;;;;;;8235466;28;20185;-67
2022/04/23 12:59:31;;;;;;;5.87;4.50;;;16.90;99.60;;;;;;8235460;28;20202;-66
2022/04/23 13:11:53;;;;;;;5.10;4.60;;;17.60;25.80;;;;;;8222508;28;20244;-67
2022/04/23 13:15:54;;;;;;;7.13;4.70;;;17.40;18.40;;;;;;8218626;28;20177;-67
2022/04/23 13:19:55;;;;;;;5.77;5.13;;;17.30;21.90;;;;;;8224141;28;20176;-67
2022/04/23 13:23:57;;;;;;;4.93;4.50;;;17.30;6.50;;;;;;8232738;28;20188;-69
2022/04/23 13:27:57;;;;;;;6.47;5.27;;;17.50;9.00;;;;;;8219344;28;20212;-68
2022/04/23 13:31:58;;;;;;;5.27;4.77;;;17.80;1.00;;;;;;8234602;28;20200;-71
2022/04/23 13:35:59;;;;;;;4.67;3.50;;;17.90;1.00;;;;;;8218615;28;20348;-68
2022/04/23 13:40:00;;;;;;;4.57;3.80;;;17.80;1.00;;;;;;8220490;28;20208;-68
2022/04/23 13:44:02;;;;;;;12.70;9.20;;;18.00;1.00;;;;;;8232602;28;20190;-67
2022/04/23 13:48:05;;;;;;;9.10;6.67;;;17.80;1.00;;;;;;8219995;28;20215;-67
2022/04/23 13:52:06;;;;;;;47.47;25.03;;;17.60;1.00;;;;;;8234030;28;20195;-67
2022/04/23 13:56:06;;;;;;;8.77;6.20;;;17.60;4.70;;;;;;8235281;28;20188;-69
2022/04/23 14:00:08;;;;;;;7.73;5.87;;;17.60;45.90;;;;;;8234382;28;20271;-67
2022/04/23 14:12:47;;;;;;;5.27;4.77;;;17.80;32.70;;;;;;8217932;28;20339;-67
2022/04/23 14:16:48;;;;;;;5.57;4.30;;;18.10;1.00;;;;;;8218639;28;20204;-68
2022/04/23 14:20:49;;;;;;;5.53;4.70;;;18.20;1.00;;;;;;8217026;28;20181;-67
2022/04/23 14:24:50;;;;;;;5.63;4.80;;;18.20;1.00;;;;;;8218838;28;20189;-69
2022/04/23 14:28:50;;;;;;;4.73;4.10;;;18.20;1.00;;;;;;8232580;28;20215;-69
2022/04/23 14:32:51;;;;;;;4.63;3.53;;;18.10;1.00;;;;;;8217420;28;20185;-69
2022/04/23 14:36:52;;;;;;;12.03;8.83;;;18.10;1.00;;;;;;8213619;28;20184;-67
2022/04/23 14:40:53;;;;;;;6.03;4.97;;;18.50;1.00;;;;;;8214614;28;20450;-68
2022/04/23 14:44:54;;;;;;;8.03;6.00;;;18.70;1.00;;;;;;8215237;28;20203;-68
2022/04/23 14:48:54;;;;;;;7.90;6.00;;;18.50;1.00;;;;;;8236830;28;20280;-69
2022/04/23 14:53:10;;;;;;;8.00;5.27;;;18.20;1.00;;;;;;8229979;28;20188;-69
2022/04/23 14:57:12;;;;;;;5.57;5.03;;;17.80;1.00;;;;;;8218017;28;20244;-69
2022/04/23 15:01:13;;;;;;;5.87;4.87;;;17.40;9.20;;;;;;8216819;28;20191;-69
2022/04/23 15:05:15;;;;;;;5.47;4.97;;;17.10;26.20;;;;;;8233048;28;20184;-68
2022/04/23 15:09:15;;;;;;;7.97;6.53;;;17.00;37.90;;;;;;8227188;28;20278;-69
2022/04/23 15:13:16;;;;;;;6.50;5.90;;;16.90;58.30;;;;;;8216546;28;20188;-69
2022/04/23 15:17:17;;;;;;;15.20;11.53;;;16.90;54.90;;;;;;8217797;28;20223;-70
2022/04/23 15:21:18;;;;;;;8.17;6.40;;;17.10;40.50;;;;;;8215217;28;20196;-69
2022/04/23 15:25:19;;;;;;;8.53;6.63;;;17.50;7.80;;;;;;8214278;28;20271;-68
2022/04/23 15:29:20;;;;;;;7.57;6.80;;;17.90;1.00;;;;;;8229705;28;20220;-68
2022/04/23 15:33:21;;;;;;;5.87;5.27;;;18.00;16.70;;;;;;8232463;28;20185;-69
2022/04/23 15:37:22;;;;;;;6.87;6.17;;;17.80;19.80;;;;;;8229050;28;20247;-68
2022/04/23 15:41:26;;;;;;;11.43;8.07;;;17.40;44.30;;;;;;8228898;28;20212;-67
2022/04/23 15:45:26;;;;;;;12.00;8.43;;;17.10;79.50;;;;;;8214851;28;20185;-68
2022/04/23 15:49:27;;;;;;;18.67;13.10;;;16.80;73.50;;;;;;8235428;28;20278;-69
2022/04/23 15:53:28;;;;;;;25.47;16.77;;;16.50;97.40;;;;;;8231643;28;20192;-69
2022/04/23 15:57:29;;;;;;;20.77;14.53;;;16.20;99.90;;;;;;8231185;28;20551;-69
2022/04/23 16:01:30;;;;;;;15.33;11.93;;;16.00;99.90;;;;;;8221484;28;20494;-69
2022/04/23 16:05:32;;;;;;;45.53;26.10;;;16.00;99.90;;;;;;8239480;28;20189;-70
2022/04/23 16:09:33;;;;;;;22.93;14.20;;;16.10;99.90;;;;;;8237375;28;20259;-69
2022/04/23 16:13:34;;;;;;;26.30;18.83;;;16.30;99.90;;;;;;8218582;28;20231;-69
2022/04/23 16:17:35;;;;;;;23.90;15.20;;;16.70;99.90;;;;;;8236530;28;20193;-69
2022/04/23 16:21:36;;;;;;;8.83;7.00;;;17.00;59.70;;;;;;8236469;28;21716;-69
2022/04/23 16:25:37;;;;;;;10.40;7.67;;;17.20;32.10;;;;;;8235484;28;20249;-67
2022/04/23 16:29:38;;;;;;;9.83;6.30;;;17.20;39.10;;;;;;8218940;28;20208;-66
2022/04/23 16:33:39;;;;;;;7.40;6.13;;;17.10;33.70;;;;;;8237692;28;20183;-68
2022/04/23 16:50:39;;;;;;;29.00;15.37;;;15.90;99.90;;;;;;8216328;28;20228;-69
2022/04/23 16:54:40;;;;;;;19.43;12.73;;;15.70;99.90;;;;;;8215660;28;20193;-69
2022/04/23 16:58:41;;;;;;;14.03;9.83;;;15.50;99.90;;;;;;8230305;28;20208;-69
2022/04/23 17:02:42;;;;;;;21.77;12.27;;;15.30;99.90;;;;;;8216122;28;20233;-70
2022/04/23 17:06:43;;;;;;;25.57;14.50;;;15.00;99.90;;;;;;8230371;28;20187;-69
2022/04/23 17:10:45;;;;;;;37.80;20.50;;;14.80;99.90;;;;;;8215279;28;20224;-69
2022/04/23 17:14:46;;;;;;;59.93;32.27;;;14.70;99.90;;;;;;8214993;28;20192;-69
2022/04/23 17:18:47;;;;;;;131.23;93.10;;;14.50;99.90;;;;;;8233148;28;20199;-69
2022/04/23 17:22:48;;;;;;;118.77;87.83;;;14.40;99.90;;;;;;8220276;28;20344;-69
2022/04/23 17:26:52;;;;;;;87.30;61.33;;;14.20;99.90;;;;;;8225009;28;20272;-70
2022/04/23 17:30:52;;;;;;;49.27;34.03;;;14.00;99.90;;;;;;8236975;28;20204;-69
2022/04/23 17:34:53;;;;;;;35.73;22.13;;;13.80;99.90;;;;;;8220519;28;20200;-69
2022/04/23 17:38:57;;;;;;;19.70;14.00;;;13.60;1.00;;;;;;8232761;28;20216;-70
2022/04/23 17:42:58;;;;;;;8.33;6.60;;;13.50;1.00;;;;;;8217085;28;20206;-71
2022/04/23 17:46:59;;;;;;;4.90;4.40;;;13.50;89.10;;;;;;8234843;28;20212;-70
2022/04/23 17:51:00;;;;;;;4.47;3.63;;;13.30;99.90;;;;;;8233889;28;20379;-70
2022/04/23 17:55:01;;;;;;;4.20;3.80;;;13.00;99.90;;;;;;8235538;28;20180;-70
2022/04/23 17:59:03;;;;;;;7.13;4.73;;;12.60;99.90;;;;;;8214723;28;20305;-70
2022/04/23 18:07:23;;;;;;;7.07;4.43;;;11.90;1.00;;;;;;8209455;28;20231;-72
2022/04/23 18:11:24;;;;;;;5.27;4.57;;;11.60;52.60;;;;;;8231927;28;20235;-71
2022/04/23 18:15:25;;;;;;;4.43;4.03;;;11.20;99.90;;;;;;8220778;28;20227;-72
2022/04/23 18:19:29;;;;;;;4.73;4.27;;;10.80;99.90;;;;;;8226350;28;20202;-72
2022/04/23 18:23:30;;;;;;;4.73;4.10;;;10.50;1.00;;;;;;8230687;28;20234;-72
2022/04/23 18:27:32;;;;;;;5.90;5.40;;;10.20;59.00;;;;;;8216321;28;20250;-72
2022/04/23 18:31:33;;;;;;;8.37;7.57;;;10.00;99.90;;;;;;8214556;28;20269;-71
2022/04/23 18:35:33;;;;;;;7.83;7.03;;;9.70;99.90;;;;;;8227344;28;20188;-72
2022/04/23 18:39:34;;;;;;;6.83;5.77;;;9.50;1.00;;;;;;8230172;28;20213;-72
2022/04/23 18:43:35;;;;;;;6.23;4.80;;;9.40;26.40;;;;;;8213947;28;20181;-72
2022/04/23 18:47:37;;;;;;;6.10;5.17;;;9.20;99.90;;;;;;8225446;28;20279;-72
2022/04/23 18:51:38;;;;;;;5.93;4.33;;;9.00;99.90;;;;;;8231470;28;20189;-70
2022/04/23 18:55:38;;;;;;;5.37;4.87;;;8.90;1.00;;;;;;8228527;28;20573;-70
2022/04/23 18:59:39;;;;;;;7.50;4.90;;;8.70;99.90;;;;;;8212739;28;20227;-70
2022/04/23 19:03:41;;;;;;;5.37;4.50;;;8.50;1.00;;;;;;8230964;28;20212;-70
2022/04/23 19:07:42;;;;;;;5.33;4.83;;;8.30;99.90;;;;;;8201420;28;20283;-70
2022/04/23 19:11:43;;;;;;;5.27;4.73;;;8.20;99.90;;;;;;8232203;28;20185;-70
2022/04/23 19:15:44;;;;;;;5.57;5.03;;;8.10;99.90;;;;;;8214104;28;20176;-70
2022/04/23 19:19:45;;;;;;;6.20;5.23;;;7.90;1.00;;;;;;8231825;28;20192;-70
2022/04/23 19:28:05;;;;;;;7.97;6.60;;;7.70;1.00;;;;;;8214444;28;20219;-72
2022/04/23 19:32:06;;;;;;;8.03;6.57;;;7.50;99.90;;;;;;8222292;28;20184;-70
2022/04/23 19:36:10;;;;;;;6.37;5.67;;;7.40;99.90;;;;;;8210040;28;20192;-69
2022/04/23 19:40:11;;;;;;;6.37;5.67;;;7.30;99.90;;;;;;8225266;28;20271;-70
2022/04/23 19:44:12;;;;;;;7.33;5.00;;;7.20;1.00;;;;;;8214085;28;20188;-70
2022/04/23 19:48:13;;;;;;;5.63;4.73;;;7.10;1.00;;;;;;8216509;28;20209;-70
2022/04/23 19:52:14;;;;;;;6.47;5.67;;;7.10;35.20;;;;;;8214096;28;20212;-70
2022/04/23 19:56:15;;;;;;;7.03;6.07;;;7.10;70.50;;;;;;8209359;28;20239;-70
2022/04/23 20:00:17;;;;;;;7.97;6.13;;;7.10;1.00;;;;;;8227151;28;20195;-70
2022/04/23 20:04:19;;;;;;;10.57;8.53;;;7.10;1.00;;;;;;8229857;28;20197;-70
2022/04/23 20:08:20;;;;;;;12.43;10.03;;;7.00;1.00;;;;;;8228611;28;20210;-70
2022/04/23 20:12:21;;;;;;;11.47;8.90;;;7.00;82.00;;;;;;8227954;28;20210;-70
2022/04/23 20:16:22;;;;;;;10.87;8.37;;;7.00;99.90;;;;;;8223783;28;20192;-70
2022/04/23 20:20:23;;;;;;;8.03;6.83;;;6.90;99.90;;;;;;8224857;28;20189;-74
2022/04/23 20:24:24;;;;;;;6.67;5.97;;;6.80;99.90;;;;;;8228870;28;20187;-70
2022/04/23 20:29:04;;;;;;;6.60;5.90;;;6.70;99.90;;;;;;8228640;28;20265;-70
2022/04/23 20:32:45;;;;;;;8.67;6.33;;;6.60;1.00;;;;;;8217090;28;20249;-70
2022/04/23 20:41:05;;;;;;;6.40;5.43;;;6.30;1.00;;;;;;8215998;28;20223;-70
2022/04/23 20:45:07;;;;;;;8.13;6.87;;;6.10;12.40;;;;;;8233848;28;20304;-70
2022/04/23 20:49:15;;;;;;;7.93;6.80;;;6.00;97.20;;;;;;8217144;28;20242;-70
2022/04/23 20:53:17;;;;;;;8.40;7.50;;;5.80;99.90;;;;;;8229395;28;20467;-70
2022/04/23 20:57:17;;;;;;;8.63;6.77;;;5.70;99.90;;;;;;8228673;28;20258;-70
2022/04/23 21:01:22;;;;;;;9.00;7.33;;;5.60;99.90;;;;;;8216825;28;20197;-71
2022/04/23 21:05:23;;;;;;;8.27;6.90;;;5.40;99.90;;;;;;8228834;28;20203;-70
2022/04/23 21:09:24;;;;;;;7.27;6.27;;;5.30;99.90;;;;;;8212277;28;20208;-70
2022/04/23 21:13:25;;;;;;;8.57;7.27;;;5.20;99.90;;;;;;8231802;28;20434;-70
2022/04/23 21:17:26;;;;;;;9.30;6.77;;;5.10;99.90;;;;;;8228407;28;20211;-72
2022/04/23 21:21:26;;;;;;;11.63;7.87;;;5.00;1.00;;;;;;8231986;28;20193;-70
2022/04/23 21:25:27;;;;;;;12.57;9.43;;;4.90;1.00;;;;;;8228481;28;20203;-70
2022/04/23 21:29:28;;;;;;;16.53;10.07;;;4.70;1.00;;;;;;8232655;28;20238;-70
2022/04/23 21:33:31;;;;;;;13.57;10.17;;;4.60;1.00;;;;;;8232979;28;20184;-70
2022/04/23 21:37:32;;;;;;;14.97;10.30;;;4.60;1.00;;;;;;8218014;28;20182;-70
2022/04/23 21:45:54;;;;;;;17.07;10.40;;;4.40;1.00;;;;;;8214141;28;20207;-73
2022/04/23 21:49:56;;;;;;;15.63;10.70;;;4.30;24.60;;;;;;8217167;28;20217;-70
2022/04/23 21:53:56;;;;;;;11.83;9.10;;;4.30;48.80;;;;;;8213739;28;20237;-70
2022/04/23 21:57:59;;;;;;;13.27;10.33;;;4.20;71.70;;;;;;8214486;28;20187;-70
2022/04/23 22:02:00;;;;;;;14.30;9.30;;;4.10;99.90;;;;;;8233425;28;20187;-70
2022/04/23 22:06:01;;;;;;;12.70;9.67;;;4.10;99.90;;;;;;8215842;28;21470;-70
2022/04/23 22:10:02;;;;;;;12.53;9.37;;;4.00;99.90;;;;;;8232394;28;20299;-70
2022/04/23 22:14:03;;;;;;;11.77;8.27;;;3.90;99.90;;;;;;8230812;28;20563;-70
2022/04/23 22:18:04;;;;;;;9.63;8.47;;;3.80;99.90;;;;;;8231024;28;20189;-70
2022/04/23 22:22:05;;;;;;;9.93;8.10;;;3.70;99.90;;;;;;8215426;28;20196;-71